Time;durP1;ratioP1;P1;durP2;ratioP2;P2;SDS_P1;SDS_P2;PMS_P1;PMS_P2;Temp;Humidity;BMP_temperature;BMP_pressure;BME280_temperature;BME280_humidity;BME280_pressure;Samples;Min_cycle;Max_cycle;Signal;HPM_P1;HPM_P2
2023/04/18 00:01:46;;;;;;;5.85;4.75;;;;;;;8.26;57.52;101469.44;10182759;29;20040;-79
2023/04/18 00:06:50;;;;;;;6.82;5.18;;;;;;;8.35;57.16;101476.09;10183762;29;20048;-80
2023/04/18 00:11:53;;;;;;;6.45;5.00;;;;;;;8.26;57.18;101472.09;10185293;29;20055;-80
2023/04/18 00:16:56;;;;;;;6.30;4.75;;;;;;;8.25;57.03;101467.69;10185639;29;20052;-79
2023/04/18 00:22:01;;;;;;;5.93;5.00;;;;;;;8.24;57.15;101467.78;10185660;29;20083;-79
2023/04/18 00:27:04;;;;;;;6.82;5.13;;;;;;;8.25;57.24;101469.50;10184066;29;20047;-79
2023/04/18 00:32:07;;;;;;;5.22;4.50;;;;;;;8.32;57.53;101468.22;10183557;29;20040;-78
2023/04/18 00:37:12;;;;;;;5.72;4.93;;;;;;;8.32;56.88;101474.44;10185002;29;20040;-80
2023/04/18 00:42:16;;;;;;;5.85;5.03;;;;;;;8.26;57.24;101465.88;10185165;29;20059;-78
2023/04/18 00:47:20;;;;;;;6.10;4.97;;;;;;;8.26;57.35;101457.84;10182402;29;20043;-78
2023/04/18 00:52:26;;;;;;;8.38;5.65;;;;;;;8.21;57.46;101457.25;10181937;29;20044;-78
2023/04/18 00:57:29;;;;;;;7.60;5.90;;;;;;;8.24;57.52;101465.09;10180452;29;20451;-79
2023/04/18 01:02:34;;;;;;;7.30;5.82;;;;;;;8.14;57.64;101462.03;10181970;29;20426;-78
2023/04/18 01:07:40;;;;;;;7.05;5.68;;;;;;;8.16;57.79;101452.97;10207825;29;20056;-79
2023/04/18 01:12:43;;;;;;;7.97;6.38;;;;;;;8.18;57.79;101452.91;10193969;29;20571;-79
2023/04/18 01:17:46;;;;;;;8.32;6.03;;;;;;;8.15;57.75;101467.31;10202362;29;20059;-79
2023/04/18 01:22:51;;;;;;;8.82;6.40;;;;;;;8.03;58.18;101462.59;10229471;29;20058;-78
2023/04/18 01:27:57;;;;;;;9.00;6.68;;;;;;;8.06;58.31;101466.94;10182309;29;20055;-79
2023/04/18 01:33:03;;;;;;;8.90;7.10;;;;;;;8.10;58.14;101465.84;10178749;29;20047;-79
2023/04/18 01:38:06;;;;;;;9.38;7.07;;;;;;;8.04;58.36;101466.19;10179458;29;20488;-79
2023/04/18 01:43:10;;;;;;;;;;;;;;;8.16;58.45;101460.16;10182906;29;20822;-79
2023/04/18 01:48:13;;;;;;;11.88;8.30;;;;;;;8.17;58.52;101462.75;10206854;29;19935;-73
2023/04/18 01:53:17;;;;;;;9.60;7.00;;;;;;;8.06;58.57;101462.44;10219986;29;20125;-75
2023/04/18 01:58:22;;;;;;;9.30;7.82;;;;;;;7.95;59.26;101454.13;10181781;29;20048;-78
2023/04/18 02:03:25;;;;;;;11.02;8.82;;;;;;;7.93;59.42;101448.88;10180041;29;20052;-77
2023/04/18 02:08:29;;;;;;;11.10;7.85;;;;;;;7.81;59.77;101452.19;10176575;29;20052;-78
2023/04/18 02:13:33;;;;;;;11.68;7.82;;;;;;;7.87;59.91;101461.69;10180430;29;20052;-78
2023/04/18 02:18:42;;;;;;;12.65;8.90;;;;;;;7.90;59.93;101459.75;10179284;29;20036;-77
2023/04/18 02:23:45;;;;;;;12.73;9.38;;;;;;;7.89;59.96;101457.13;10178795;29;20500;-76
2023/04/18 02:28:49;;;;;;;11.77;8.77;;;;;;;7.85;60.52;101461.78;10178883;29;20048;-80
2023/04/18 02:33:52;;;;;;;12.48;9.40;;;;;;;7.82;60.70;101466.44;10185594;29;20091;-80
2023/04/18 02:38:56;;;;;;;12.20;9.02;;;;;;;7.81;60.80;101457.53;10184709;29;20051;-78
2023/04/18 02:44:01;;;;;;;12.00;8.50;;;;;;;7.82;61.17;101461.09;10200304;29;20084;-80
2023/04/18 02:49:03;;;;;;;11.77;8.38;;;;;;;7.83;61.06;101468.16;10226176;29;20036;-74
2023/04/18 02:54:06;;;;;;;14.18;8.95;;;;;;;7.83;61.10;101471.69;10191484;29;20108;-79
2023/04/18 02:59:25;;;;;;;11.77;9.05;;;;;;;7.64;61.73;101462.91;10182164;29;20068;-77
2023/04/18 03:05:00;;;;;;;12.00;8.68;;;;;;;7.72;61.70;101466.03;10158944;29;20059;-79
2023/04/18 03:10:04;;;;;;;14.20;7.97;;;;;;;7.63;61.73;101469.22;10190333;29;20060;-78
2023/04/18 03:15:11;;;;;;;10.85;8.57;;;;;;;7.62;62.03;101464.78;10185101;29;20079;-79
2023/04/18 03:20:14;;;;;;;13.93;10.35;;;;;;;7.49;62.19;101476.13;10186128;29;20069;-78
2023/04/18 03:25:18;;;;;;;14.80;10.77;;;;;;;7.35;62.97;101467.06;10189175;29;20048;-79
2023/04/18 03:30:27;;;;;;;14.57;11.23;;;;;;;7.48;62.96;101477.03;10183748;29;20043;-80
2023/04/18 03:35:32;;;;;;;15.82;10.57;;;;;;;7.38;63.21;101480.28;10183582;29;20040;-78
2023/04/18 03:40:35;;;;;;;17.23;10.57;;;;;;;7.50;63.11;101477.84;10200815;23;20055;-80
2023/04/18 03:45:47;;;;;;;16.02;10.45;;;;;;;7.41;63.58;101478.31;10183531;29;20048;-80
2023/04/18 03:50:52;;;;;;;19.95;13.25;;;;;;;7.14;64.60;101477.88;10159277;29;20136;-80
2023/04/18 03:55:55;;;;;;;20.85;12.48;;;;;;;7.25;64.30;101485.38;10130568;29;20488;-79
2023/04/18 04:01:11;;;;;;;16.75;12.30;;;;;;;7.20;64.87;101485.59;10151507;29;20045;-80
2023/04/18 04:06:14;;;;;;;18.50;13.80;;;;;;;7.16;64.92;101492.03;10141124;29;20053;-79
2023/04/18 04:11:19;;;;;;;22.02;12.82;;;;;;;7.17;65.00;101485.75;10152681;29;20125;-79
2023/04/18 04:16:24;;;;;;;19.08;13.18;;;;;;;7.36;64.89;101487.50;10156780;29;20048;-80
2023/04/18 04:21:30;;;;;;;18.83;12.50;;;;;;;7.35;64.68;101492.00;10136678;29;20048;-79
2023/04/18 04:26:34;;;;;;;19.75;11.77;;;;;;;7.38;64.78;101491.84;10140819;29;20047;-78
2023/04/18 04:31:45;;;;;;;19.85;12.95;;;;;;;7.47;64.60;101483.34;10137905;29;20507;-77
2023/04/18 04:36:54;;;;;;;17.38;11.35;;;;;;;7.48;64.70;101495.75;10157388;29;20049;-79
2023/04/18 04:42:02;;;;;;;18.55;12.32;;;;;;;7.41;65.12;101510.41;10133866;29;20045;-79
2023/04/18 04:47:15;;;;;;;15.82;11.57;;;;;;;7.24;65.98;101511.25;10135601;29;20432;-79
2023/04/18 04:52:19;;;;;;;20.23;13.40;;;;;;;7.32;66.17;101512.66;10125582;29;20116;-80
2023/04/18 04:57:22;;;;;;;21.52;14.38;;;;;;;7.07;67.32;101519.19;10141992;29;20079;-79
2023/04/18 05:02:26;;;;;;;23.40;15.05;;;;;;;7.17;67.32;101525.84;10152825;29;20085;-78
2023/04/18 05:07:30;;;;;;;23.92;16.17;;;;;;;7.18;67.65;101527.53;10137865;29;20040;-79
2023/04/18 05:12:34;;;;;;;25.35;16.67;;;;;;;7.18;67.82;101537.38;10139360;29;20048;-79
2023/04/18 05:17:39;;;;;;;23.15;15.68;;;;;;;7.26;67.74;101536.06;10140166;29;20481;-78
2023/04/18 05:22:42;;;;;;;28.80;16.83;;;;;;;7.28;67.80;101531.50;10135275;29;20036;-78
2023/04/18 05:27:45;;;;;;;29.73;16.13;;;;;;;7.18;67.95;101534.72;10141031;29;20052;-80
2023/04/18 05:32:49;;;;;;;28.42;16.55;;;;;;;7.26;68.09;101540.53;10129908;29;20052;-78
2023/04/18 05:37:52;;;;;;;23.63;14.95;;;;;;;7.14;68.21;101541.16;10155124;29;20052;-78
2023/04/18 05:42:55;;;;;;;23.92;14.50;;;;;;;7.15;68.28;101543.72;10139098;29;20049;-78
2023/04/18 05:47:59;;;;;;;25.85;16.58;;;;;;;7.16;68.62;101556.19;10137779;29;20063;-78
2023/04/18 05:53:02;;;;;;;28.15;18.20;;;;;;;7.17;68.50;101541.00;10133008;29;20041;-77
2023/04/18 05:58:05;;;;;;;26.02;16.92;;;;;;;7.20;68.80;101531.03;10160604;29;20063;-79
2023/04/18 06:03:09;;;;;;;28.00;17.50;;;;;;;7.18;68.73;101548.06;10154429;29;20056;-81
2023/04/18 06:08:13;;;;;;;26.73;17.38;;;;;;;7.33;68.75;101541.13;10134584;29;20072;-80
2023/04/18 06:13:16;;;;;;;26.92;16.92;;;;;;;7.39;68.62;101556.84;10152053;29;20057;-80
2023/04/18 06:18:20;;;;;;;30.13;17.80;;;;;;;7.57;68.03;101558.63;10155613;29;20075;-81
2023/04/18 06:23:23;;;;;;;29.58;17.17;;;;;;;7.44;68.43;101560.19;10139613;29;20456;-81
2023/04/18 06:28:26;;;;;;;30.85;17.15;;;;;;;7.47;68.59;101562.69;10133860;29;20104;-81
2023/04/18 06:33:30;;;;;;;27.77;18.02;;;;;;;7.53;68.66;101577.56;10141290;29;20045;-81
2023/04/18 06:38:33;;;;;;;31.95;17.63;;;;;;;7.50;68.54;101578.59;10137131;29;20036;-80
2023/04/18 06:43:36;;;;;;;30.13;17.90;;;;;;;7.46;68.75;101591.25;10137276;29;20500;-81
2023/04/18 06:48:41;;;;;;;31.55;19.63;;;;;;;7.48;68.60;101597.38;10143637;29;20064;-81
2023/04/18 06:53:44;;;;;;;33.97;20.70;;;;;;;7.50;68.78;101589.28;10137386;29;20509;-81
2023/04/18 06:58:47;;;;;;;33.63;20.30;;;;;;;7.43;69.10;101604.78;10140679;29;20567;-81
2023/04/18 07:03:51;;;;;;;37.08;21.92;;;;;;;7.70;68.81;101599.84;10144363;29;20420;-81
2023/04/18 07:08:58;;;;;;;38.47;23.52;;;;;;;7.82;68.12;101598.38;10128550;29;20060;-81
2023/04/18 07:14:01;;;;;;;41.00;23.58;;;;;;;8.08;67.95;101599.72;10138642;29;20075;-82
2023/04/18 07:19:06;;;;;;;34.70;22.58;;;;;;;8.28;66.90;101600.50;10142993;29;20041;-80
2023/04/18 07:24:09;;;;;;;36.10;20.73;;;;;;;8.61;65.36;101593.41;10101659;29;20052;-82
2023/04/18 07:29:12;;;;;;;27.50;18.55;;;;;;;8.79;64.56;101590.69;10112706;29;20051;-83
2023/04/18 07:34:16;;;;;;;26.90;17.17;;;;;;;8.69;64.71;101598.34;10093695;29;20057;-82
2023/04/18 07:39:19;;;;;;;27.73;18.20;;;;;;;8.63;64.63;101606.72;10114399;29;20060;-82
2023/04/18 07:44:24;;;;;;;28.40;18.58;;;;;;;8.68;64.57;101607.34;10089944;29;20527;-83
2023/04/18 07:49:28;;;;;;;31.13;19.35;;;;;;;8.40;65.38;101600.72;10092380;29;20052;-82
2023/04/18 07:54:31;;;;;;;32.15;19.90;;;;;;;8.44;65.55;101616.63;10101384;29;20143;-83
2023/04/18 07:59:34;;;;;;;29.58;18.48;;;;;;;8.47;65.19;101617.38;10091865;29;20083;-82
2023/04/18 08:04:39;;;;;;;32.05;20.48;;;;;;;8.49;65.52;101615.47;10115843;29;20060;-83
2023/04/18 08:09:42;;;;;;;30.42;19.77;;;;;;;8.45;65.43;101619.25;10102901;29;20045;-83
2023/04/18 08:14:45;;;;;;;33.25;20.75;;;;;;;8.64;65.23;101620.97;10103490;29;20049;-83
2023/04/18 08:19:49;;;;;;;33.78;21.13;;;;;;;8.56;64.92;101611.53;10091565;29;20060;-82
2023/04/18 08:24:52;;;;;;;34.20;20.77;;;;;;;9.05;64.48;101621.41;10099235;29;20453;-82
2023/04/18 08:29:59;;;;;;;33.80;18.98;;;;;;;9.54;62.42;101626.69;10114047;29;20056;-83
2023/04/18 08:35:04;;;;;;;29.30;19.02;;;;;;;9.24;62.60;101622.13;10095419;29;20059;-83
2023/04/18 08:40:07;;;;;;;31.80;22.05;;;;;;;9.11;62.58;101626.44;10110685;29;20074;-83
2023/04/18 08:45:12;;;;;;;32.17;20.67;;;;;;;9.10;63.00;101632.72;10086412;29;20132;-82
2023/04/18 08:50:17;;;;;;;30.65;20.83;;;;;;;9.35;62.92;101642.09;10088737;29;21205;-82
2023/04/18 08:55:21;;;;;;;30.70;21.83;;;;;;;9.45;62.43;101646.00;10100808;29;20502;-82
2023/04/18 09:00:24;;;;;;;30.10;21.17;;;;;;;9.60;61.87;101637.09;10082252;29;20089;-82
2023/04/18 09:05:28;;;;;;;28.85;20.15;;;;;;;9.46;62.04;101645.94;10107174;29;20472;-82
2023/04/18 09:10:32;;;;;;;29.88;20.35;;;;;;;9.55;61.57;101641.00;10095401;29;20060;-82
2023/04/18 09:15:35;;;;;;;28.27;19.85;;;;;;;9.59;61.47;101638.03;10097330;29;20426;-82
2023/04/18 09:20:41;;;;;;;26.88;19.45;;;;;;;9.63;61.45;101630.69;10094536;29;20052;-83
2023/04/18 09:25:46;;;;;;;24.30;17.80;;;;;;;9.59;60.92;101645.22;10092263;29;20049;-83
2023/04/18 09:30:51;;;;;;;23.25;18.52;;;;;;;9.64;61.25;101646.69;10092121;29;20068;-83
2023/04/18 09:35:59;;;;;;;22.42;16.92;;;;;;;10.16;60.06;101642.81;10081640;29;20089;-83
2023/04/18 09:41:08;;;;;;;22.70;16.40;;;;;;;10.62;58.36;101642.75;10097226;29;20411;-82
2023/04/18 09:46:11;;;;;;;22.77;16.90;;;;;;;11.05;56.96;101645.41;10098507;29;20508;-83
2023/04/18 09:51:16;;;;;;;25.02;17.20;;;;;;;11.58;55.90;101632.22;10093144;29;20665;-82
2023/04/18 09:56:24;;;;;;;23.15;16.05;;;;;;;11.67;54.82;101634.31;10083875;29;20133;-83
2023/04/18 10:01:28;;;;;;;21.52;17.23;;;;;;;11.63;54.76;101625.56;10099998;29;20076;-83
2023/04/18 10:06:37;;;;;;;18.17;14.80;;;;;;;11.43;55.45;101629.56;10087884;29;20049;-84
2023/04/18 10:11:40;;;;;;;25.67;17.83;;;;;;;11.83;55.14;101628.78;10097394;29;20075;-83
2023/04/18 10:16:45;;;;;;;25.08;18.38;;;;;;;11.91;54.40;101626.44;10109256;29;20048;-83
2023/04/18 10:21:56;;;;;;;22.30;17.52;;;;;;;11.88;54.89;101623.94;10120493;29;20072;-82
2023/04/18 10:26:59;;;;;;;21.90;16.92;;;;;;;12.03;54.10;101619.34;10089520;29;20109;-83
2023/04/18 10:32:06;;;;;;;22.17;17.58;;;;;;;12.87;52.71;101612.66;10095011;29;20488;-84
2023/04/18 10:37:11;;;;;;;21.15;16.33;;;;;;;13.88;49.92;101608.81;10097789;29;20049;-83
2023/04/18 10:42:14;;;;;;;21.27;16.20;;;;;;;14.57;48.29;101613.47;10089422;29;20064;-82
2023/04/18 10:47:26;;;;;;;18.20;15.23;;;;;;;14.54;47.14;101601.03;10107855;29;20051;-84
2023/04/18 10:52:31;;;;;;;16.67;14.87;;;;;;;14.32;47.90;101607.25;10117299;29;20055;-84
2023/04/18 10:57:41;;;;;;;17.27;14.73;;;;;;;14.08;48.34;101604.59;10103033;29;20310;-84
2023/04/18 11:02:54;;;;;;;16.83;13.00;;;;;;;14.15;47.26;101599.56;10099555;29;20470;-83
2023/04/18 11:07:59;;;;;;;15.23;11.60;;;;;;;15.00;45.27;101596.50;10096877;29;20055;-84
2023/04/18 11:13:05;;;;;;;15.57;13.60;;;;;;;15.40;45.60;101590.56;10117437;29;20053;-84
2023/04/18 11:18:09;;;;;;;17.55;13.13;;;;;;;17.28;42.11;101595.16;10106557;29;20116;-82
2023/04/18 11:23:19;;;;;;;17.08;13.05;;;;;;;15.93;43.96;101593.34;10095583;29;20052;-83
2023/04/18 11:28:23;;;;;;;14.90;12.52;;;;;;;14.26;46.76;101585.22;10107582;29;20060;-83
2023/04/18 11:33:28;;;;;;;13.88;12.27;;;;;;;13.43;48.03;101588.81;10098628;29;20048;-83
2023/04/18 11:38:33;;;;;;;22.00;13.98;;;;;;;15.25;45.90;101589.97;10097829;29;20441;-83
2023/04/18 11:43:36;;;;;;;15.57;13.43;;;;;;;15.36;44.78;101583.69;10109815;29;20188;-83
2023/04/18 11:48:40;;;;;;;15.80;11.90;;;;;;;16.67;42.69;101576.16;10100414;29;20764;-82
2023/04/18 11:53:45;;;;;;;13.93;10.27;;;;;;;16.17;42.76;101586.81;10099991;29;20052;-82
2023/04/18 11:58:48;;;;;;;13.40;10.88;;;;;;;15.60;43.06;101589.78;10094070;29;20052;-81
2023/04/18 12:04:01;;;;;;;13.75;11.57;;;;;;;15.19;44.33;101585.91;10092362;29;20501;-83
2023/04/18 12:09:06;;;;;;;14.82;11.85;;;;;;;15.56;44.26;101585.63;10156689;29;20064;-81
2023/04/18 12:14:19;;;;;;;12.57;10.60;;;;;;;15.88;43.79;101591.03;10130060;29;20544;-82
2023/04/18 12:19:26;;;;;;;;;;;;;;;16.46;42.88;101582.50;10101996;29;20521;-82
2023/04/18 12:24:31;;;;;;;13.25;9.90;;;;;;;15.64;44.19;101588.53;10112201;29;19927;-82
2023/04/18 12:29:34;;;;;;;11.73;9.18;;;;;;;16.59;42.74;101584.97;10129371;29;20056;-81
2023/04/18 12:34:37;;;;;;;11.02;9.82;;;;;;;15.25;43.34;101584.56;10154376;29;20889;-81
2023/04/18 12:39:41;;;;;;;16.38;10.35;;;;;;;15.04;45.37;101584.44;10112685;29;20068;-81
2023/04/18 12:44:44;;;;;;;11.93;10.10;;;;;;;15.86;43.21;101586.75;10102851;29;20060;-81
2023/04/18 12:49:49;;;;;;;12.15;10.10;;;;;;;15.18;44.29;101588.75;10114691;29;20076;-82
2023/04/18 12:54:55;;;;;;;12.15;9.75;;;;;;;15.76;44.66;101581.22;10119224;29;20104;-83
2023/04/18 12:59:58;;;;;;;11.65;10.10;;;;;;;17.18;41.21;101584.25;10098775;29;20426;-83
2023/04/18 13:05:00;;;;;;;10.13;9.05;;;;;;;17.66;39.70;101571.75;10111535;29;20134;-83
2023/04/18 13:10:07;;;;;;;13.13;9.55;;;;;;;16.21;42.30;101585.56;10116516;29;20535;-83
2023/04/18 13:15:10;;;;;;;12.15;9.45;;;;;;;15.86;43.13;101584.03;10119234;29;20044;-83
2023/04/18 13:20:13;;;;;;;12.52;9.68;;;;;;;15.65;43.36;101595.66;10116364;29;20045;-83
2023/04/18 13:25:18;;;;;;;10.20;9.10;;;;;;;16.85;41.14;101590.81;10112936;29;20051;-83
2023/04/18 13:30:21;;;;;;;12.10;8.88;;;;;;;16.75;41.39;101581.75;10095110;29;20792;-83
2023/04/18 13:35:24;;;;;;;9.27;7.88;;;;;;;17.23;40.47;101578.41;10086633;29;20139;-83
2023/04/18 13:40:28;;;;;;;11.07;7.70;;;;;;;17.53;39.92;101572.03;10093035;29;20052;-82
2023/04/18 13:45:31;;;;;;;9.02;8.10;;;;;;;16.57;41.23;101568.84;10111056;29;20508;-82
2023/04/18 13:50:34;;;;;;;10.50;8.50;;;;;;;15.58;43.18;101586.34;10114258;29;20135;-82
2023/04/18 13:55:38;;;;;;;10.35;7.97;;;;;;;16.30;41.65;101574.81;10117313;29;20119;-83
2023/04/18 14:00:41;;;;;;;11.30;7.50;;;;;;;16.83;39.92;101578.38;10109500;29;20131;-82
2023/04/18 14:05:44;;;;;;;8.70;7.80;;;;;;;15.51;42.25;101586.97;10099082;29;20753;-81
2023/04/18 14:10:48;;;;;;;11.90;8.00;;;;;;;15.30;43.02;101584.16;10111106;29;20055;-83
2023/04/18 14:15:52;;;;;;;11.85;7.75;;;;;;;17.06;40.71;101576.31;10095035;29;20048;-82
2023/04/18 14:20:55;;;;;;;10.27;7.22;;;;;;;16.89;40.12;101564.25;10102886;29;20052;-83
2023/04/18 14:25:59;;;;;;;9.82;7.78;;;;;;;17.38;39.51;101562.56;10104688;29;20056;-83
2023/04/18 14:31:05;;;;;;;8.52;7.32;;;;;;;18.03;38.69;101555.59;10121922;29;20052;-83
2023/04/18 14:36:09;;;;;;;8.43;7.07;;;;;;;18.69;38.05;101553.88;10114387;29;20052;-82
2023/04/18 14:41:13;;;;;;;7.95;7.07;;;;;;;18.48;37.63;101548.63;10106690;29;20052;-82
2023/04/18 14:46:16;;;;;;;8.20;7.20;;;;;;;17.93;38.33;101547.41;10121492;29;20603;-83
2023/04/18 14:51:22;;;;;;;8.20;7.40;;;;;;;17.48;38.75;101556.16;10106483;29;20063;-83
2023/04/18 14:56:26;;;;;;;8.25;7.43;;;;;;;;;;10107069;29;20048;-83
2023/04/18 15:01:30;;;;;;;8.23;7.43;;;;;;;17.78;38.66;101537.16;10109540;29;20049;-81
2023/04/18 15:06:33;;;;;;;10.00;7.43;;;;;;;17.87;38.57;101542.56;10107387;29;20048;-82
2023/04/18 15:11:37;;;;;;;10.00;8.25;;;;;;;18.02;38.40;101536.72;10119330;29;20052;-80
2023/04/18 15:16:40;;;;;;;7.50;6.80;;;;;;;18.22;38.19;101529.41;10099437;29;20059;-80
2023/04/18 15:21:43;;;;;;;9.05;7.22;;;;;;;18.66;37.04;101527.81;10093803;29;20057;-80
2023/04/18 15:26:47;;;;;;;9.77;7.10;;;;;;;18.33;37.78;101519.19;10110209;29;20056;-79
2023/04/18 15:31:50;;;;;;;10.80;7.78;;;;;;;17.59;38.90;101514.41;10097671;29;20093;-80
2023/04/18 15:36:53;;;;;;;8.85;7.95;;;;;;;17.65;38.70;101518.41;10098547;29;20540;-80
2023/04/18 15:41:57;;;;;;;8.05;7.20;;;;;;;17.19;38.89;101517.22;10114532;29;20044;-79
2023/04/18 15:47:00;;;;;;;10.20;7.55;;;;;;;16.85;39.36;101539.25;10104269;29;20044;-81
2023/04/18 15:52:05;;;;;;;9.68;8.00;;;;;;;16.83;40.11;101532.25;10109420;29;20051;-81
2023/04/18 15:57:09;;;;;;;10.48;7.40;;;;;;;17.01;39.74;101519.75;10096554;29;20093;-79
2023/04/18 16:02:12;;;;;;;8.93;7.43;;;;;;;16.91;39.51;101521.56;10104244;29;20057;-80
2023/04/18 16:07:15;;;;;;;7.68;6.97;;;;;;;17.26;39.11;101523.81;10112920;29;20063;-80
2023/04/18 16:12:20;;;;;;;9.38;7.85;;;;;;;17.23;39.52;101529.53;10110738;29;21229;-81
2023/04/18 16:17:23;;;;;;;8.82;7.40;;;;;;;16.99;39.86;101529.88;10099376;29;20794;-81
2023/04/18 16:22:25;;;;;;;9.95;7.82;;;;;;;16.23;40.50;101524.78;10097147;29;20045;-81
2023/04/18 16:27:30;;;;;;;10.15;7.85;;;;;;;16.30;40.29;101522.47;10133318;29;20100;-81
2023/04/18 16:32:33;;;;;;;12.35;8.35;;;;;;;16.22;41.10;101535.78;10111872;29;20171;-81
2023/04/18 16:37:35;;;;;;;9.57;7.70;;;;;;;15.98;40.96;101528.78;10108333;29;20060;-81
2023/04/18 16:42:40;;;;;;;10.65;8.13;;;;;;;15.80;41.78;101528.50;10096290;29;20052;-81
2023/04/18 16:47:43;;;;;;;9.60;8.00;;;;;;;15.61;42.64;101531.06;10100353;29;20057;-81
2023/04/18 16:52:46;;;;;;;9.20;8.13;;;;;;;15.65;42.42;101530.66;10096939;29;20070;-81
2023/04/18 16:57:50;;;;;;;13.23;7.40;;;;;;;15.64;42.87;101534.38;10107435;29;20056;-81
2023/04/18 17:02:54;;;;;;;11.45;9.10;;;;;;;15.39;43.14;101532.88;10117742;29;20099;-81
2023/04/18 17:07:57;;;;;;;12.50;8.82;;;;;;;15.19;43.73;101537.19;10106793;29;20052;-80
2023/04/18 17:13:02;;;;;;;12.13;9.70;;;;;;;14.85;44.32;101539.09;10102369;29;20048;-81
2023/04/18 17:18:05;;;;;;;10.70;9.20;;;;;;;14.46;44.92;101545.84;10095377;29;20048;-81
2023/04/18 17:23:08;;;;;;;13.70;10.52;;;;;;;14.12;45.81;101551.16;10104719;29;20055;-81
2023/04/18 17:28:12;;;;;;;14.63;10.85;;;;;;;13.78;46.73;101552.91;10102892;29;20053;-81
2023/04/18 17:33:15;;;;;;;13.70;11.32;;;;;;;13.55;47.13;101558.22;10096467;29;20048;-80
2023/04/18 17:38:18;;;;;;;13.60;12.05;;;;;;;13.23;47.91;101552.47;10106881;29;20136;-81
2023/04/18 17:43:22;;;;;;;14.10;11.55;;;;;;;13.17;48.50;101553.78;10094032;29;20508;-80
2023/04/18 17:48:25;;;;;;;13.15;10.57;;;;;;;13.05;48.94;101557.38;10094771;29;20076;-81
2023/04/18 17:53:29;;;;;;;14.43;11.73;;;;;;;12.85;49.20;101548.03;10099692;29;20465;-81
2023/04/18 17:58:35;;;;;;;12.60;10.25;;;;;;;12.65;49.55;101548.63;10112203;29;20182;-82
2023/04/18 18:03:38;;;;;;;14.18;10.80;;;;;;;12.29;50.32;101553.81;10095749;29;20052;-81
2023/04/18 18:08:43;;;;;;;14.10;11.00;;;;;;;12.13;50.83;101562.06;10096465;29;20060;-81
2023/04/18 18:13:50;;;;;;;12.60;10.48;;;;;;;11.98;51.35;101575.69;10107413;29;20074;-81
2023/04/18 18:18:53;;;;;;;12.93;10.60;;;;;;;11.88;51.87;101576.34;10109458;29;20056;-80
2023/04/18 18:23:56;;;;;;;13.68;11.38;;;;;;;11.75;52.09;101579.97;10111260;29;20053;-79
2023/04/18 18:29:01;;;;;;;14.23;11.75;;;;;;;11.65;52.67;101585.09;10089606;29;20049;-79
2023/04/18 18:34:04;;;;;;;14.02;11.30;;;;;;;11.45;53.59;101584.59;10091560;29;20127;-80
2023/04/18 18:39:07;;;;;;;14.50;11.75;;;;;;;11.42;53.75;101584.78;10086066;29;20056;-80
2023/04/18 18:44:11;;;;;;;16.90;13.35;;;;;;;11.39;54.19;101593.06;10094055;29;20538;-80
2023/04/18 18:49:14;;;;;;;16.63;12.02;;;;;;;11.52;54.29;101597.63;10091088;29;20044;-80
2023/04/18 18:54:18;;;;;;;14.95;12.35;;;;;;;11.70;54.47;101597.28;10088791;29;20428;-80
2023/04/18 18:59:22;;;;;;;14.98;12.15;;;;;;;11.81;53.97;101591.16;10093158;29;20044;-81
2023/04/18 19:04:25;;;;;;;14.98;12.20;;;;;;;11.88;54.15;101602.41;10101577;29;20104;-79
2023/04/18 19:09:28;;;;;;;13.32;11.80;;;;;;;11.87;54.54;101606.03;10096923;29;20413;-80
2023/04/18 19:14:32;;;;;;;14.45;10.98;;;;;;;11.86;54.08;101598.94;10104298;29;20119;-81
2023/04/18 19:19:35;;;;;;;13.52;10.50;;;;;;;11.85;53.86;101608.88;10102387;29;20056;-81
2023/04/18 19:24:38;;;;;;;17.58;10.98;;;;;;;11.77;54.43;101603.13;10104671;29;20063;-81
2023/04/18 19:29:42;;;;;;;16.65;11.13;;;;;;;11.68;54.70;101601.91;10113228;29;20527;-80
2023/04/18 19:34:45;;;;;;;13.70;10.10;;;;;;;11.77;55.11;101611.19;10114296;29;20055;-80
2023/04/18 19:39:48;;;;;;;15.18;11.23;;;;;;;11.76;55.73;101608.59;10103793;29;20068;-81
2023/04/18 19:44:52;;;;;;;15.35;11.23;;;;;;;11.75;56.06;101612.28;10091493;29;20056;-80
2023/04/18 19:49:55;;;;;;;14.15;10.57;;;;;;;11.72;56.40;101613.34;10103445;29;20544;-80
2023/04/18 19:54:58;;;;;;;19.38;11.65;;;;;;;11.69;57.02;101605.47;10113075;29;20048;-80
2023/04/18 20:00:02;;;;;;;15.10;11.10;;;;;;;11.72;57.07;101600.72;10127886;29;20065;-80
2023/04/18 20:05:13;;;;;;;;;;;;;;;11.72;57.13;101613.34;10111900;29;20048;-81
2023/04/18 20:10:20;;;;;;;19.15;12.02;;;;;;;11.65;57.94;101602.09;10110569;29;19938;-80
2023/04/18 20:15:24;;;;;;;16.02;10.82;;;;;;;11.65;58.09;101610.16;10106297;29;20480;-81
2023/04/18 20:20:27;;;;;;;16.63;12.15;;;;;;;11.58;58.37;101616.94;10106503;29;20088;-81
2023/04/18 20:25:31;;;;;;;18.40;11.70;;;;;;;11.64;58.47;101611.16;10095459;29;20048;-81
2023/04/18 20:30:36;;;;;;;17.92;12.10;;;;;;;11.62;58.56;101613.06;10117277;29;20458;-81
2023/04/18 20:35:39;;;;;;;15.40;11.20;;;;;;;11.65;58.51;101610.16;10106837;29;21153;-80
2023/04/18 20:40:43;;;;;;;16.77;11.73;;;;;;;11.65;58.47;101602.09;10138163;29;20058;-79
2023/04/18 20:45:50;;;;;;;18.20;11.90;;;;;;;11.60;58.77;101612.31;10147238;23;20051;-77
2023/04/18 20:50:53;;;;;;;16.33;11.43;;;;;;;11.62;58.61;101610.38;10187773;29;20122;-77
2023/04/18 20:55:56;;;;;;;17.08;12.07;;;;;;;11.58;58.83;101595.41;10190756;29;20079;-76
2023/04/18 21:01:00;;;;;;;22.10;12.23;;;;;;;11.46;58.90;101609.66;10167660;29;20075;-76
2023/04/18 21:06:03;;;;;;;17.23;11.73;;;;;;;11.56;58.83;101609.94;10154835;29;20068;-76
2023/04/18 21:11:06;;;;;;;16.00;10.75;;;;;;;11.54;58.77;101618.09;10159025;29;20411;-76
2023/04/18 21:16:10;;;;;;;17.17;11.07;;;;;;;11.53;58.78;101621.75;10149715;29;20491;-76
2023/04/18 21:21:13;;;;;;;16.92;11.30;;;;;;;11.49;58.86;101620.22;10148681;29;20090;-77
2023/04/18 21:26:15;;;;;;;16.42;10.43;;;;;;;11.51;58.94;101620.97;10154401;29;20143;-76
2023/04/18 21:31:20;;;;;;;16.33;10.98;;;;;;;11.50;59.05;101624.66;10143233;29;20041;-76
2023/04/18 21:36:25;;;;;;;15.52;10.55;;;;;;;11.48;58.98;101623.88;10152952;29;20055;-76
2023/04/18 21:41:28;;;;;;;13.35;10.05;;;;;;;11.47;58.97;101623.03;10150720;29;20044;-77
2023/04/18 21:46:32;;;;;;;15.88;10.38;;;;;;;11.35;59.22;101622.94;10148853;29;20124;-76
2023/04/18 21:51:35;;;;;;;13.70;9.82;;;;;;;11.31;59.38;101619.59;10154668;29;20460;-76
2023/04/18 21:56:38;;;;;;;14.43;10.13;;;;;;;11.31;59.36;101621.44;10158024;29;20116;-76
2023/04/18 22:01:42;;;;;;;13.85;10.27;;;;;;;11.28;59.22;101623.34;10146922;29;20051;-76
2023/04/18 22:06:45;;;;;;;14.30;9.23;;;;;;;11.26;59.04;101619.88;10156171;29;20050;-76
2023/04/18 22:11:50;;;;;;;16.35;10.23;;;;;;;11.30;58.80;101625.06;10152720;29;20053;-76
2023/04/18 22:16:54;;;;;;;12.63;8.77;;;;;;;11.26;58.68;101609.13;10145974;29;20071;-76
2023/04/18 22:21:57;;;;;;;13.45;8.25;;;;;;;11.09;58.38;101616.53;10155917;29;20079;-76
2023/04/18 22:27:01;;;;;;;18.20;11.10;;;;;;;11.05;57.93;101622.13;10141002;29;20075;-76
2023/04/18 22:32:05;;;;;;;13.07;7.75;;;;;;;11.09;57.96;101619.22;10154194;29;20075;-76
2023/04/18 22:37:08;;;;;;;9.75;6.57;;;;;;;11.10;57.58;101618.25;10150862;29;20075;-77
2023/04/18 22:42:11;;;;;;;11.55;6.93;;;;;;;11.10;57.13;101626.31;10146210;29;20060;-76
2023/04/18 22:47:15;;;;;;;9.15;6.03;;;;;;;11.03;56.89;101626.72;10154445;29;20067;-76
2023/04/18 22:52:19;;;;;;;6.97;5.75;;;;;;;10.98;56.61;101618.06;10169074;29;20148;-76
2023/04/18 22:57:21;;;;;;;7.97;5.53;;;;;;;10.72;56.60;101626.91;10156415;29;20091;-76
2023/04/18 23:02:26;;;;;;;10.60;5.38;;;;;;;10.82;56.10;101628.06;10159740;29;20520;-76